Skip Navigation LinksHome page > Weather > Current weather Skip Navigation Links

Current Weather

Indira Gandhi Intl Apt, New Delhi, India

For information only: do not use for flight planning or navigation.
Latest weather
Observation time Saturday, September 22, 2018 3:00 PM IST
Local time Saturday, September 22, 2018 3:33 PM IST
Flight conditions Instrument Meteorological Conditions
Winds
Wind direction East (90°)
Wind speed 13 mph
Visibility 2.2 mi.
Present weather mist
Sky condition
Ceiling 8,000 ft. broken clouds
Cloud layer scattered clouds 3,000 ft.
Cloud layer broken clouds 8,000 ft.
Temperature 81°F
Dewpoint 75°F
Altimeter 29.77 in.Hg
Derived measurements
Relative humidity 84%
Heat index 86°F
Density altitude 2725 ft.
Remarks
No significant changes expected in the next two hours.
METAR VIDP 220930Z 09011KT 3500 BR SCT030 BKN080 27/24 Q1008 NOSIG

Settings

Location code

InnerDrive.Weather 4.0.6770.0 Release CLR 4.0.30319.42000
Copyright ©2018 Inner Drive Technology. All rights reserved. Portions Copyright ©1986-2018 David Braverman.

Find weather

Site navigation


Skip Navigation Links

Place info

Page info

PayPal - The safer, easier way to pay online!

Return home.

Copyright ©2018 Inner Drive Technology. Purveyors of fine, hand-crafted computer software. Page printed 2018-09-22T10:03:14 UTC.